Aérodrome :
LOGIN :

S'inscrire | Disclaimer

   EN    FR    IT 

 










Légende :    VFR   VFR Marginal   IFR   IFR Intensif   IFR Très Intensif
Visi : 
Plafond : 
>= 8 km
>= 3000ft
5 à 8 km
1000 à 3000 ft
1500m à 5 km
500 à 1000 ft
800 à 1500m
200 à 500 ft
< 800m
< 200 ft
Symboles :   Orages  Brouillard  Fortes neiges  Fortes précipitations  Vent > 20 kt
SIGMETs :   Divers  Orages  Givrage  Turbulence  Onde Orograph.  Cendres Volcan.







- Altitude de l'aérodrome : 37 ft


EHVL - Vlieland Heliport

DERNIER METAR :
  • 280639Z AUTO 09019KT 9999 BKN007 OVC008 16/15 Q0996 GRN

METARs EXPIRÉS :
  • 280629Z AUTO 09019KT 9999 BKN006 OVC008 16/15 Q0997 YLO
  • 280625Z AUTO 09020KT 9999 SCT006 BKN007 OVC009 16/15 Q0997 YLO
  • 280555Z AUTO 08021KT 9999 BKN006 OVC008 15/15 Q0997 YLO
  • 280541Z AUTO 08021KT 9999 FEW005 BKN007 OVC008 15/15 Q0997 GRN
  • 280528Z AUTO 08023KT 9999 SCT006 OVC007 15/15 Q0997 YLO
  • 280511Z AUTO 08023KT 9999 BKN006 BKN007 FEW015CB 15/15 Q0997 YLO
  • 280455Z AUTO 08022KT 9999 BKN007 BKN008 FEW015CB 15/15 Q0997 GRN
  • 280440Z AUTO 08024KT 9999 SCT006 BKN008 BKN010 FEW015CB 16/15 Q0998 YLO
  • 280425Z AUTO 08022KT 9999 BKN008 BKN009 FEW015CB 16/15 Q0998 GRN
  • 280419Z AUTO 08023KT 9999 BKN008 BKN009 FEW015CB 16/15 Q0998 GRN
  • 280406Z AUTO 08024KT 4200 RA FEW004 BKN009 BKN011 FEW015CB 16/15 Q0998 GRN
  • 280355Z AUTO 08024KT 9999 FEW007 SCT009 BKN011 FEW015CB 16/15 Q0998 GRN
  • 280343Z AUTO 08021KT 9999 -DZ FEW008 FEW015CB BKN022 OVC025 16/15 Q0998 WHT

Prévision TAF périmée.
Pas de NOTAMs connus pour ce terrain.



MET'MAP, la Météo Aéronautique d'un coup d'oeil ! - Copyright ORBIFLY Décembre 2007 - Disclaimer

ORBIFLY MET'MAP TEAM :

Programmation & Développement : Alexandra Zaïnal
Conception & Développement : Baudouin d'Aumeries
Co-Programmation & Développement : Marc-Olivier Méhu
Soutien technique & logistique : Manuel Goepfert

Contact : metmap@orbifly.com




SOURCES & CREDITS :

   NOAA